Delaware, Ohio
Current Conditions -  °F | °C
As of 10:41 PM on Sunday 21 Dec 2014 (Local Time) from KDLZ Reporting Station
Scattered Clouds Scattered Clouds  
Wind Chill: 21°   Ceiling: Unl
Heat Index: 27°   Visibility: 7mi
Dew Point: 21°   Wind: 5mph
Humidity: 80%   Direction: 110°ESE
Pressure: 30.17"   Gusts: NA
Location:  40.3°N, 83.06°W
Report Text: KDLZ 220341Z AUTO 11004KT 7SM SCT110 M03/M06 A3017 RMK AO2
Loading
Personal Weather Stations






























Interactive Weather Map New forecast layout! Learn more

10-Day Weather Forecast

Advertisements
Track Severe Weather on mobile